createdAt,value
2022-07-27T00:00:39.743Z,62.60
2022-07-27T00:03:07.388Z,62.50
2022-07-27T00:05:34.737Z,62.40
2022-07-27T00:08:02.118Z,62.40
2022-07-27T00:10:29.447Z,63.20
2022-07-27T00:12:56.802Z,62.40
2022-07-27T00:15:23.859Z,62.30
2022-07-27T00:17:51.533Z,63.20
2022-07-27T00:20:18.775Z,63.00
2022-07-27T00:22:50.840Z,63.30
2022-07-27T00:41:51.586Z,64.00
2022-07-27T00:44:25.871Z,64.20
2022-07-27T00:50:47.094Z,63.50
2022-07-27T00:53:14.260Z,63.90
2022-07-27T00:55:41.599Z,64.40
2022-07-27T00:58:09.096Z,64.60
2022-07-27T01:00:36.782Z,64.50
2022-07-27T01:03:09.121Z,64.20
2022-07-27T01:05:37.936Z,64.10
2022-07-27T01:08:12.550Z,63.90
2022-07-27T01:10:39.756Z,63.30
2022-07-27T01:13:06.574Z,63.10
2022-07-27T01:15:40.490Z,62.80
2022-07-27T01:18:10.963Z,63.30
2022-07-27T01:20:37.747Z,63.60
2022-07-27T01:23:04.576Z,63.30
2022-07-27T01:25:31.283Z,63.00
2022-07-27T01:27:57.982Z,63.40
2022-07-27T01:30:27.828Z,63.30
2022-07-27T01:33:01.328Z,63.20
2022-07-27T01:35:28.284Z,63.20
2022-07-27T01:37:55.210Z,64.10
2022-07-27T01:40:22.950Z,63.70
2022-07-27T01:42:49.858Z,63.90
2022-07-27T01:49:04.927Z,63.70
2022-07-27T01:51:31.905Z,65.10
2022-07-27T01:53:58.760Z,65.60
2022-07-27T01:56:25.571Z,65.60
2022-07-27T01:58:52.575Z,65.60
2022-07-27T02:03:46.574Z,65.30
2022-07-27T02:06:13.255Z,65.50
2022-07-27T02:08:40.202Z,64.80
2022-07-27T02:11:25.410Z,64.40
2022-07-27T02:13:52.157Z,64.00
2022-07-27T02:16:19.438Z,64.20
2022-07-27T02:18:48.639Z,64.30
2022-07-27T02:21:15.951Z,64.00
2022-07-27T02:23:44.574Z,64.40
2022-07-27T02:26:11.506Z,64.10
2022-07-27T02:28:38.446Z,64.00
2022-07-27T02:31:05.348Z,64.20
2022-07-27T02:33:32.216Z,64.00
2022-07-27T02:35:59.131Z,64.20
2022-07-27T02:38:26.086Z,64.50
2022-07-27T02:41:01.767Z,64.20
2022-07-27T02:43:58.394Z,64.60
2022-07-27T02:50:38.661Z,66.00
2022-07-27T02:53:05.394Z,65.20
2022-07-27T02:55:50.572Z,65.00
2022-07-27T02:58:17.333Z,64.80
2022-07-27T03:00:58.633Z,66.00
2022-07-27T03:03:36.763Z,66.40
2022-07-27T03:06:07.911Z,65.60
2022-07-27T03:08:35.340Z,65.70
2022-07-27T03:11:02.372Z,64.80
2022-07-27T03:13:29.112Z,64.30
2022-07-27T03:15:56.444Z,64.40
2022-07-27T03:18:23.305Z,64.20
2022-07-27T03:20:50.188Z,64.00
2022-07-27T03:23:20.635Z,64.20
2022-07-27T03:25:47.308Z,64.40
2022-07-27T03:28:14.486Z,64.40
2022-07-27T03:30:41.578Z,64.70
2022-07-27T03:33:11.224Z,64.60
2022-07-27T03:35:38.028Z,65.50
2022-07-27T03:38:04.850Z,65.30
2022-07-27T03:40:34.564Z,65.70
2022-07-27T03:43:01.396Z,65.40
2022-07-27T03:45:28.331Z,64.70
2022-07-27T03:51:42.888Z,67.20
2022-07-27T03:54:10.072Z,68.70
2022-07-27T03:56:36.816Z,69.40
2022-07-27T03:59:03.618Z,69.10
2022-07-27T04:01:30.757Z,67.30
2022-07-27T04:04:17.123Z,66.70
2022-07-27T04:06:45.181Z,66.20
2022-07-27T04:09:14.001Z,66.80
2022-07-27T04:11:51.054Z,66.50
2022-07-27T04:14:20.360Z,66.70
2022-07-27T04:16:47.540Z,66.90
2022-07-27T04:19:14.807Z,66.40
2022-07-27T04:21:41.942Z,66.50
2022-07-27T04:24:08.981Z,67.70
2022-07-27T04:26:36.564Z,67.90
2022-07-27T04:29:03.811Z,67.70
2022-07-27T04:31:31.028Z,68.60
2022-07-27T04:33:57.772Z,69.80
2022-07-27T04:36:24.686Z,70.50
2022-07-27T04:38:51.445Z,70.70
2022-07-27T04:41:18.217Z,70.70
2022-07-27T04:43:45.098Z,70.30
2022-07-27T04:50:06.060Z,69.70
2022-07-27T04:52:32.988Z,70.40
2022-07-27T04:54:59.747Z,70.30
2022-07-27T04:58:23.487Z,70.10
2022-07-27T05:00:50.595Z,70.50
2022-07-27T05:03:17.384Z,71.40
2022-07-27T05:06:23.280Z,71.80
2022-07-27T05:08:50.060Z,72.10
2022-07-27T05:11:16.853Z,72.50
2022-07-27T05:13:43.671Z,71.10
2022-07-27T05:16:10.844Z,70.60
2022-07-27T05:18:38.432Z,69.40
2022-07-27T05:21:25.198Z,69.30
2022-07-27T05:24:10.998Z,69.00
2022-07-27T05:26:56.460Z,69.10
2022-07-27T05:29:42.170Z,69.90
2022-07-27T05:32:27.490Z,69.80
2022-07-27T05:35:12.645Z,69.40
2022-07-27T05:37:59.014Z,69.10
2022-07-27T05:40:45.601Z,68.30
2022-07-27T05:43:31.079Z,68.00
2022-07-27T05:46:17.455Z,67.60
2022-07-27T05:49:03.028Z,67.20
2022-07-27T05:51:49.070Z,67.00
2022-07-27T05:54:34.328Z,67.90
2022-07-27T05:57:19.734Z,68.30
2022-07-27T06:00:06.323Z,69.60
2022-07-27T06:02:51.855Z,70.70
2022-07-27T06:05:37.146Z,71.20
2022-07-27T06:08:22.361Z,71.50
2022-07-27T06:11:07.615Z,72.40
2022-07-27T06:13:53.135Z,72.60
2022-07-27T06:16:39.187Z,73.40
2022-07-27T06:19:24.828Z,74.00
2022-07-27T06:22:22.962Z,74.00
2022-07-27T06:25:09.038Z,74.20
2022-07-27T06:27:55.761Z,74.50
2022-07-27T06:30:43.389Z,75.00
2022-07-27T06:33:52.295Z,75.40
2022-07-27T06:36:39.800Z,76.00
2022-07-27T06:39:25.201Z,76.40
2022-07-27T06:42:13.422Z,76.60
2022-07-27T06:44:59.000Z,76.30
2022-07-27T06:47:48.967Z,76.60
2022-07-27T06:53:21.941Z,74.60
2022-07-27T06:56:08.543Z,70.00
2022-07-27T06:58:54.220Z,68.90
2022-07-27T07:01:39.737Z,69.20
2022-07-27T07:04:25.342Z,71.00
2022-07-27T07:07:26.210Z,72.60
2022-07-27T07:10:11.619Z,73.40
2022-07-27T07:13:03.339Z,74.30
2022-07-27T07:15:48.644Z,75.60
2022-07-27T07:18:33.852Z,76.00
2022-07-27T07:21:19.176Z,77.50
2022-07-27T07:24:04.533Z,77.10
2022-07-27T07:26:50.183Z,77.50
2022-07-27T07:29:35.379Z,78.50
2022-07-27T07:32:27.763Z,79.00
2022-07-27T07:35:17.076Z,78.40
2022-07-27T07:38:02.731Z,77.60
2022-07-27T07:40:48.477Z,77.10
2022-07-27T07:58:56.725Z,75.50
2022-07-27T08:01:25.039Z,74.90
2022-07-27T08:03:52.871Z,73.90
2022-07-27T08:06:19.840Z,72.90
2022-07-27T08:09:23.695Z,72.40
2022-07-27T08:11:52.635Z,72.00
2022-07-27T08:14:19.338Z,70.90
2022-07-27T08:16:48.469Z,70.30
2022-07-27T08:19:16.043Z,70.50
2022-07-27T08:21:42.914Z,70.20
2022-07-27T08:24:09.689Z,70.80
2022-07-27T08:26:36.575Z,70.00
2022-07-27T08:29:13.215Z,69.00
2022-07-27T08:31:51.136Z,68.60
2022-07-27T08:34:18.771Z,67.90
2022-07-27T08:36:45.606Z,68.50
2022-07-27T08:39:41.251Z,68.70
2022-07-27T08:42:01.657Z,68.80
2022-07-27T08:44:29.894Z,68.40
2022-07-27T08:46:57.392Z,68.00
2022-07-27T08:49:41.361Z,67.50
2022-07-27T08:52:11.169Z,67.80
2022-07-27T08:54:41.756Z,67.40
2022-07-27T08:57:09.461Z,67.30
2022-07-27T08:59:36.343Z,66.70
2022-07-27T09:02:04.630Z,66.50
2022-07-27T09:04:31.581Z,66.80
2022-07-27T09:06:58.433Z,66.50
2022-07-27T09:10:02.853Z,66.40
2022-07-27T09:12:30.376Z,66.00
2022-07-27T09:15:11.027Z,65.80
2022-07-27T09:17:54.642Z,66.00
2022-07-27T09:20:21.611Z,66.30
2022-07-27T09:22:55.252Z,65.00
2022-07-27T09:25:38.734Z,64.20
2022-07-27T09:28:10.572Z,64.30
2022-07-27T09:30:46.551Z,61.40
2022-07-27T09:33:15.244Z,60.50
2022-07-27T09:35:42.023Z,58.40
2022-07-27T09:38:18.318Z,58.30
2022-07-27T09:40:46.672Z,57.10
2022-07-27T09:46:06.530Z,56.90
2022-07-27T09:48:34.732Z,57.20
2022-07-27T09:51:32.872Z,57.60
2022-07-27T09:53:50.340Z,58.30
2022-07-27T09:56:18.057Z,57.90
2022-07-27T09:58:46.119Z,58.10
2022-07-27T10:01:15.099Z,58.70
2022-07-27T10:03:43.006Z,59.20
2022-07-27T10:06:10.463Z,59.10
2022-07-27T10:09:14.979Z,58.90
2022-07-27T10:11:42.070Z,58.60
2022-07-27T10:14:09.051Z,59.40
2022-07-27T10:16:37.592Z,59.20
2022-07-27T10:19:40.185Z,59.00
2022-07-27T10:22:07.053Z,59.60
2022-07-27T10:24:37.006Z,59.50
2022-07-27T10:27:32.976Z,59.00
2022-07-27T10:29:59.853Z,58.90
2022-07-27T10:32:33.490Z,59.50
2022-07-27T10:35:01.366Z,59.80
2022-07-27T10:37:32.022Z,60.20
2022-07-27T10:40:18.852Z,58.70
2022-07-27T10:42:51.899Z,59.10
2022-07-27T10:45:21.032Z,59.60
2022-07-27T10:47:49.099Z,59.30
2022-07-27T10:50:15.831Z,58.80
2022-07-27T10:52:43.562Z,59.40
2022-07-27T10:55:29.178Z,59.00
2022-07-27T10:58:03.150Z,57.50
2022-07-27T11:00:53.508Z,56.90
2022-07-27T11:03:33.531Z,57.50
2022-07-27T11:12:26.832Z,55.30
2022-07-27T11:14:54.918Z,54.30
2022-07-27T11:17:56.223Z,55.20
2022-07-27T11:20:13.328Z,54.50
2022-07-27T11:25:27.957Z,58.00
2022-07-27T11:27:54.903Z,55.80
2022-07-27T11:30:25.524Z,57.00
2022-07-27T11:32:52.633Z,54.90
2022-07-27T11:35:20.391Z,54.70
2022-07-27T11:38:00.680Z,54.60
2022-07-27T11:40:56.203Z,54.20
2022-07-27T11:43:33.882Z,54.20
2022-07-27T11:46:19.515Z,55.20
2022-07-27T11:49:05.932Z,56.30
2022-07-27T11:51:34.484Z,56.60
2022-07-27T11:54:02.294Z,56.50
2022-07-27T11:56:32.184Z,56.60
2022-07-27T11:59:03.334Z,55.60
2022-07-27T12:01:31.353Z,55.60
2022-07-27T12:04:05.627Z,55.30
2022-07-27T12:06:34.078Z,55.30
2022-07-27T12:09:39.126Z,55.30
2022-07-27T12:12:15.724Z,55.40
2022-07-27T12:14:51.238Z,54.30
2022-07-27T12:17:30.414Z,54.40
2022-07-27T12:20:00.236Z,56.80
2022-07-27T12:22:36.655Z,55.80
2022-07-27T12:25:10.003Z,55.30
2022-07-27T12:28:01.985Z,54.30
2022-07-27T12:30:32.710Z,53.50
2022-07-27T12:33:00.000Z,53.70
2022-07-27T12:35:32.770Z,53.10
2022-07-27T12:38:04.443Z,54.00
2022-07-27T12:40:32.063Z,54.00
2022-07-27T12:43:03.150Z,54.00
2022-07-27T12:45:34.346Z,53.60
2022-07-27T12:48:14.409Z,53.50
2022-07-27T12:50:42.044Z,53.20
2022-07-27T12:53:09.608Z,52.20
2022-07-27T12:55:36.664Z,52.70
2022-07-27T12:58:04.075Z,53.00
2022-07-27T13:00:33.848Z,52.50
2022-07-27T13:03:02.191Z,52.00
2022-07-27T13:05:30.033Z,52.40
2022-07-27T13:08:01.510Z,53.50
2022-07-27T13:11:09.164Z,54.20
2022-07-27T13:13:37.128Z,53.70
2022-07-27T13:16:04.463Z,53.30
2022-07-27T13:18:32.346Z,53.40
2022-07-27T13:21:00.328Z,53.00
2022-07-27T13:23:31.049Z,52.60
2022-07-27T13:25:58.629Z,51.60
2022-07-27T13:28:25.979Z,51.10
2022-07-27T13:30:53.358Z,50.50
2022-07-27T13:33:23.151Z,50.80
2022-07-27T13:35:51.627Z,50.90
2022-07-27T13:38:29.288Z,50.60
2022-07-27T13:40:56.625Z,50.10
2022-07-27T13:43:24.368Z,49.70
2022-07-27T13:45:52.020Z,49.50
2022-07-27T13:48:20.105Z,49.20
2022-07-27T13:50:50.484Z,49.10
2022-07-27T13:53:18.424Z,49.40
2022-07-27T13:55:45.933Z,49.40
2022-07-27T13:58:13.880Z,49.70
2022-07-27T14:00:41.936Z,50.00
2022-07-27T14:03:11.320Z,50.70
2022-07-27T14:05:49.616Z,50.30
2022-07-27T14:08:18.120Z,50.80
2022-07-27T14:15:14.321Z,51.90
2022-07-27T14:17:42.588Z,52.00
2022-07-27T14:20:11.652Z,51.70
2022-07-27T14:22:41.291Z,51.70
2022-07-27T14:25:10.950Z,52.00
2022-07-27T14:27:40.127Z,52.00
2022-07-27T14:30:09.856Z,51.60
2022-07-27T14:32:38.804Z,50.90
2022-07-27T14:35:08.113Z,51.30
2022-07-27T14:37:37.642Z,51.00
2022-07-27T14:40:07.013Z,50.50
2022-07-27T14:42:35.742Z,50.40
2022-07-27T14:45:05.587Z,49.70
2022-07-27T14:47:38.880Z,49.20
2022-07-27T14:50:42.725Z,50.50
2022-07-27T15:01:23.553Z,50.90
2022-07-27T15:03:50.409Z,50.50
2022-07-27T15:06:17.397Z,50.50
2022-07-27T15:08:44.327Z,50.20
2022-07-27T15:15:29.221Z,50.30
2022-07-27T15:17:55.980Z,49.60
2022-07-27T15:20:23.357Z,48.90
2022-07-27T15:22:50.882Z,47.90
2022-07-27T15:25:18.087Z,49.10
2022-07-27T15:27:45.345Z,49.50
2022-07-27T15:30:12.298Z,49.80
2022-07-27T15:32:39.128Z,48.20
2022-07-27T15:35:06.074Z,48.60
2022-07-27T15:37:32.906Z,49.10
2022-07-27T15:40:20.334Z,48.40
2022-07-27T15:42:47.327Z,48.10
2022-07-27T15:45:14.069Z,48.20
2022-07-27T15:47:40.840Z,48.00
2022-07-27T15:50:08.273Z,47.20
2022-07-27T15:52:36.250Z,47.10
2022-07-27T15:55:03.225Z,47.70
2022-07-27T15:57:30.102Z,47.10
2022-07-27T15:59:56.852Z,48.10
2022-07-27T16:02:26.507Z,47.90
2022-07-27T16:04:54.578Z,47.00
2022-07-27T16:07:21.563Z,47.00
2022-07-27T16:09:48.306Z,47.00
2022-07-27T16:12:52.770Z,47.40
2022-07-27T16:15:19.656Z,47.00
2022-07-27T16:18:01.862Z,47.10
2022-07-27T16:20:29.578Z,46.80
2022-07-27T16:22:57.104Z,45.60
2022-07-27T16:25:40.179Z,45.60
2022-07-27T16:28:11.256Z,46.20
2022-07-27T16:30:38.426Z,47.10
2022-07-27T16:33:05.164Z,46.90
2022-07-27T16:35:32.218Z,46.50
2022-07-27T16:37:59.459Z,46.70
2022-07-27T16:40:26.820Z,46.80
2022-07-27T16:42:54.406Z,46.80
2022-07-27T16:45:21.867Z,46.60
2022-07-27T16:47:49.195Z,46.30
2022-07-27T16:50:16.458Z,46.60
2022-07-27T16:52:43.731Z,46.70
2022-07-27T16:55:11.921Z,46.70
2022-07-27T16:57:40.180Z,46.30
2022-07-27T17:00:08.904Z,46.10
2022-07-27T17:02:36.190Z,46.60
2022-07-27T17:05:05.125Z,46.30
2022-07-27T17:07:31.998Z,47.10
2022-07-27T17:09:58.928Z,46.20
2022-07-27T17:13:03.175Z,46.30
2022-07-27T17:15:31.559Z,45.80
2022-07-27T17:17:59.638Z,46.90
2022-07-27T17:20:28.124Z,46.50
2022-07-27T17:23:02.657Z,47.00
2022-07-27T17:25:29.512Z,46.10
2022-07-27T17:27:56.520Z,46.20
2022-07-27T17:30:24.112Z,46.30
2022-07-27T17:32:50.936Z,46.90
2022-07-27T17:35:17.621Z,46.80
2022-07-27T17:38:05.089Z,46.40
2022-07-27T17:40:32.342Z,46.80
2022-07-27T17:42:59.072Z,46.50
2022-07-27T17:45:25.855Z,47.50
2022-07-27T17:47:52.733Z,46.70
2022-07-27T17:50:19.646Z,47.30
2022-07-27T17:52:46.431Z,47.60
2022-07-27T17:55:13.250Z,47.50
2022-07-27T17:57:40.061Z,47.40
2022-07-27T18:00:07.640Z,47.50
2022-07-27T18:02:36.924Z,47.20
2022-07-27T18:05:03.841Z,47.80
2022-07-27T18:07:30.764Z,47.40
2022-07-27T18:10:06.305Z,47.50
2022-07-27T18:16:52.025Z,47.30
2022-07-27T18:19:19.180Z,47.50
2022-07-27T18:21:45.961Z,48.20
2022-07-27T18:24:13.029Z,49.10
2022-07-27T18:26:40.107Z,48.80
2022-07-27T18:29:07.332Z,48.60
2022-07-27T18:34:02.014Z,48.10
2022-07-27T18:36:29.406Z,48.90
2022-07-27T18:38:57.480Z,49.50
2022-07-27T18:41:24.979Z,54.60
2022-07-27T18:43:51.869Z,53.00
2022-07-27T18:46:20.171Z,52.60
2022-07-27T18:48:47.935Z,52.00
2022-07-27T18:51:15.207Z,51.50
2022-07-27T18:53:44.088Z,51.60
2022-07-27T18:56:10.942Z,51.30
2022-07-27T18:58:37.776Z,51.80
2022-07-27T19:01:04.708Z,51.10
2022-07-27T19:03:31.660Z,50.90
2022-07-27T19:05:59.124Z,50.60
2022-07-27T19:08:26.071Z,50.80
2022-07-27T19:10:53.164Z,50.00
2022-07-27T19:13:57.657Z,50.70
2022-07-27T19:16:25.023Z,50.60
2022-07-27T19:18:52.840Z,50.60
2022-07-27T19:21:20.021Z,50.40
2022-07-27T19:23:46.828Z,50.50
2022-07-27T19:26:13.923Z,50.50
2022-07-27T19:28:41.726Z,50.40
2022-07-27T19:31:22.699Z,50.50
2022-07-27T19:33:52.259Z,50.40
2022-07-27T19:36:19.545Z,50.50
2022-07-27T19:38:46.321Z,50.50
2022-07-27T19:41:13.332Z,50.40
2022-07-27T19:43:40.192Z,50.50
2022-07-27T19:46:07.152Z,50.40
2022-07-27T19:48:34.027Z,50.50
2022-07-27T19:51:04.862Z,50.70
2022-07-27T19:53:35.679Z,50.60
2022-07-27T19:56:02.963Z,50.40
2022-07-27T19:58:29.870Z,50.50
2022-07-27T20:00:56.781Z,50.50
2022-07-27T20:03:23.869Z,50.40
2022-07-27T20:05:50.755Z,50.40
2022-07-27T20:08:17.756Z,50.40
2022-07-27T20:10:45.183Z,50.40
2022-07-27T20:16:42.649Z,50.50
2022-07-27T20:19:09.527Z,50.60
2022-07-27T20:21:36.992Z,50.50
2022-07-27T20:24:04.370Z,50.60
2022-07-27T20:26:31.943Z,50.60
2022-07-27T20:28:59.835Z,50.70
2022-07-27T20:31:32.668Z,50.90
2022-07-27T20:33:59.527Z,56.40
2022-07-27T20:36:26.241Z,57.30
2022-07-27T20:38:53.228Z,57.10
2022-07-27T20:41:20.023Z,58.30
2022-07-27T20:43:47.350Z,57.00
2022-07-27T20:46:15.764Z,58.70
2022-07-27T20:48:42.826Z,58.40
2022-07-27T20:51:10.891Z,58.80
2022-07-27T20:53:39.478Z,59.40
2022-07-27T20:56:06.447Z,57.90
2022-07-27T20:58:33.241Z,58.00
2022-07-27T21:01:00.540Z,58.90
2022-07-27T21:03:27.369Z,62.40
2022-07-27T21:05:54.624Z,60.90
2022-07-27T21:08:21.463Z,59.10
2022-07-27T21:10:48.184Z,58.60
2022-07-27T21:13:15.158Z,57.40
2022-07-27T21:16:19.756Z,57.60
2022-07-27T21:18:46.568Z,58.40
2022-07-27T21:21:13.268Z,58.20
2022-07-27T21:23:58.985Z,57.50
2022-07-27T21:26:25.787Z,57.20
2022-07-27T21:28:52.897Z,58.30
2022-07-27T21:31:19.980Z,58.40
2022-07-27T21:33:47.698Z,58.90
2022-07-27T21:36:14.496Z,59.70
2022-07-27T21:38:41.379Z,60.40
2022-07-27T21:41:08.195Z,57.80
2022-07-27T21:43:34.979Z,57.10
2022-07-27T21:46:02.090Z,56.70
2022-07-27T21:48:28.843Z,58.00
2022-07-27T21:50:55.708Z,57.80
2022-07-27T21:53:22.548Z,57.60
2022-07-27T21:55:49.531Z,56.60
2022-07-27T21:58:16.562Z,56.60
2022-07-27T22:00:43.667Z,56.20
2022-07-27T22:03:10.616Z,57.70
2022-07-27T22:05:37.600Z,58.30
2022-07-27T22:08:08.171Z,60.60
2022-07-27T22:10:35.225Z,52.70
2022-07-27T22:13:02.086Z,52.90
2022-07-27T22:16:06.544Z,52.70
2022-07-27T22:18:33.389Z,53.00
2022-07-27T22:21:03.341Z,53.30
2022-07-27T22:23:30.231Z,53.30
2022-07-27T22:25:58.046Z,54.40
2022-07-27T22:28:26.211Z,53.40
2022-07-27T22:31:20.463Z,53.90
2022-07-27T22:33:40.643Z,53.30
2022-07-27T22:36:12.000Z,53.80
2022-07-27T22:38:39.287Z,53.20
2022-07-27T22:41:06.072Z,54.20
2022-07-27T22:43:32.930Z,53.60
2022-07-27T22:46:00.254Z,54.30
2022-07-27T22:48:27.322Z,53.80
2022-07-27T22:50:54.180Z,54.40
2022-07-27T22:53:21.041Z,53.90
2022-07-27T22:55:47.763Z,54.10
2022-07-27T22:58:17.942Z,54.30
2022-07-27T23:00:45.086Z,54.80
2022-07-27T23:03:12.681Z,54.40
2022-07-27T23:05:39.546Z,54.60
2022-07-27T23:08:06.307Z,54.90
2022-07-27T23:10:48.439Z,54.90
2022-07-27T23:13:16.152Z,54.70
2022-07-27T23:16:20.444Z,54.60
2022-07-27T23:18:47.354Z,54.40
2022-07-27T23:21:14.312Z,54.60
2022-07-27T23:23:51.051Z,55.00
2022-07-27T23:26:26.104Z,54.50
2022-07-27T23:28:53.642Z,54.70
2022-07-27T23:31:23.539Z,54.80
2022-07-27T23:33:50.308Z,54.50
2022-07-27T23:36:17.283Z,54.20
2022-07-27T23:38:44.052Z,54.80
2022-07-27T23:41:10.876Z,55.10
2022-07-27T23:55:02.695Z,55.60
2022-07-27T23:57:29.437Z,55.30
2022-07-27T23:59:56.580Z,55.60
